EKVJ

Stauning Airport

Skjern / Ringkøbing, Denmark
METAR EKVJ 230850Z 31016G26KT 260V340 3500 -RA BKN010 11/11 Q1008
Observed Flight Rules
Oct-23 @ 08:50 UTC (49 minutes ago) Instrument Flight Rules
Wind Visibility Clouds Conditions
310° at 16 knots
 Gusting to 26 knots
3,492 meters
  • Broken at 1,000' AGL
  • Light Rain
Temperatures Readings
Current 11°C / 52°F
Dewpoint 11°C / 52°F
Humidity 100%
Altimeter 29.76" Hg
Pressure 1008 hPa
Elevation 5
METAR EKVJ 230850Z 31016G26KT 260V340 3500 -RA BKN010 11/11 Q1008
Observed Flight Rules
Oct-23 @ 08:50 UTC
(49 minutes ago)
IFR
Wind Visibility
310° at 16 knots
 Gusting to 26 knots
3,492 meters
Clouds
  • Broken at 1,000' AGL
Conditions
  • Light Rain
Temperature Dewpoint
11°C / 52°F 11°C / 52°F
Humidity Altimeter Pressure
100% 29.76" Hg 1008 hPa